createdAt,value
2023-02-08T00:01:18.853Z,0.74
2023-02-08T00:11:40.435Z,0.68
2023-02-08T00:22:01.798Z,0.62
2023-02-08T00:32:23.215Z,0.62
2023-02-08T00:42:44.584Z,0.58
2023-02-08T00:53:05.949Z,0.54
2023-02-08T01:03:27.459Z,0.52
2023-02-08T01:13:49.095Z,0.50
2023-02-08T01:24:10.657Z,0.46
2023-02-08T01:34:31.998Z,0.42
2023-02-08T01:45:12.127Z,0.40
2023-02-08T01:55:35.887Z,0.36
2023-02-08T02:06:10.951Z,0.28
2023-02-08T02:16:32.402Z,0.21
2023-02-08T02:26:53.851Z,0.15
2023-02-08T02:37:34.170Z,0.10
2023-02-08T02:47:58.633Z,0.04
2023-02-08T02:58:21.873Z,-0.04
2023-02-08T03:08:55.349Z,-0.08
2023-02-08T03:19:22.652Z,-0.08
2023-02-08T03:29:48.078Z,-0.07
2023-02-08T03:40:25.386Z,-0.07
2023-02-08T03:50:49.393Z,-0.10
2023-02-08T04:01:25.631Z,-0.16
2023-02-08T04:11:47.031Z,-0.16
2023-02-08T04:22:08.412Z,-0.22
2023-02-08T04:32:29.824Z,-0.21
2023-02-08T04:42:51.203Z,-0.25
2023-02-08T04:53:12.698Z,-0.26
2023-02-08T05:03:34.112Z,-0.28
2023-02-08T05:13:55.491Z,-0.34
2023-02-08T05:24:17.246Z,-0.41
2023-02-08T05:34:38.665Z,-0.48
2023-02-08T05:45:00.012Z,-0.52
2023-02-08T05:55:21.427Z,-0.57
2023-02-08T06:05:43.128Z,-0.58
2023-02-08T06:16:05.036Z,-0.52
2023-02-08T06:26:26.410Z,-0.53
2023-02-08T06:36:47.807Z,-0.54
2023-02-08T06:47:09.153Z,-0.55
2023-02-08T06:57:30.513Z,-0.55
2023-02-08T07:07:51.943Z,-0.60
2023-02-08T07:18:13.380Z,-0.61
2023-02-08T07:28:35.480Z,-0.56
2023-02-08T07:38:56.915Z,-0.52
2023-02-08T07:49:18.297Z,-0.40
2023-02-08T07:59:39.658Z,-0.28
2023-02-08T08:10:01.024Z,-0.18
2023-02-08T08:20:22.414Z,-0.10
2023-02-08T08:30:44.746Z,-0.04
2023-02-08T08:41:07.298Z,0.06
2023-02-08T08:51:28.742Z,0.09
2023-02-08T09:01:50.137Z,0.16
2023-02-08T09:12:11.656Z,0.28
2023-02-08T09:22:33.078Z,0.43
2023-02-08T09:32:54.455Z,0.60
2023-02-08T09:43:25.337Z,0.75
2023-02-08T09:53:50.331Z,0.94
2023-02-08T10:04:14.766Z,1.10
2023-02-08T10:14:54.899Z,1.28
2023-02-08T10:25:22.312Z,1.49
2023-02-08T10:35:48.266Z,1.60
2023-02-08T10:46:09.758Z,1.63
2023-02-08T10:56:43.540Z,1.94
2023-02-08T11:07:19.062Z,2.18
2023-02-08T11:17:40.453Z,2.34
2023-02-08T11:28:02.526Z,2.55
2023-02-08T11:38:28.176Z,2.90
2023-02-08T11:48:51.419Z,3.08
2023-02-08T11:59:12.786Z,3.34
2023-02-08T12:09:52.927Z,3.52
2023-02-08T12:20:20.526Z,3.90
2023-02-08T12:30:45.056Z,4.15
2023-02-08T12:41:22.185Z,4.74
2023-02-08T12:51:54.749Z,4.86
2023-02-08T13:02:44.570Z,5.09
2023-02-08T13:13:09.029Z,5.20
2023-02-08T13:23:56.861Z,5.42
2023-02-08T13:34:36.521Z,5.52
2023-02-08T13:44:58.371Z,5.52
2023-02-08T13:55:30.432Z,5.60
2023-02-08T14:05:57.857Z,5.59
2023-02-08T14:16:22.294Z,5.66
2023-02-08T14:26:44.777Z,5.93
2023-02-08T14:37:26.212Z,5.81
2023-02-08T14:47:47.543Z,5.91
2023-02-08T14:58:12.883Z,5.90
2023-02-08T15:08:34.293Z,5.91
2023-02-08T15:18:55.737Z,5.76
2023-02-08T15:29:18.881Z,5.71
2023-02-08T15:39:40.283Z,5.54
2023-02-08T15:50:02.963Z,5.39
2023-02-08T16:00:25.925Z,5.18
2023-02-08T16:10:48.717Z,4.99
2023-02-08T16:21:21.866Z,4.91
2023-02-08T16:31:45.628Z,4.84
2023-02-08T16:42:20.314Z,4.69
2023-02-08T16:52:41.755Z,4.52
2023-02-08T17:03:03.379Z,4.32
2023-02-08T17:13:27.030Z,4.16
2023-02-08T17:23:48.626Z,4.14
2023-02-08T17:34:09.983Z,3.97
2023-02-08T17:44:33.392Z,3.82
2023-02-08T17:54:54.798Z,3.71
2023-02-08T18:05:17.239Z,3.57
2023-02-08T18:15:38.645Z,3.51
2023-02-08T18:26:04.310Z,3.38
2023-02-08T18:36:25.752Z,3.21
2023-02-08T18:46:47.894Z,3.09
2023-02-08T18:57:12.249Z,3.01
2023-02-08T19:07:35.042Z,2.92
2023-02-08T19:17:58.433Z,2.79
2023-02-08T19:28:19.922Z,2.78
2023-02-08T19:38:41.845Z,2.71
2023-02-08T19:49:03.471Z,2.57
2023-02-08T19:59:26.590Z,2.49
2023-02-08T20:09:47.975Z,2.45
2023-02-08T20:20:09.686Z,2.36
2023-02-08T20:30:31.090Z,2.32
2023-02-08T20:41:00.723Z,2.16
2023-02-08T20:51:22.660Z,2.15
2023-02-08T21:01:46.356Z,2.16
2023-02-08T21:12:07.883Z,2.08
2023-02-08T21:22:29.351Z,2.08
2023-02-08T21:32:50.756Z,1.99
2023-02-08T21:43:12.649Z,1.90
2023-02-08T21:53:52.715Z,1.84
2023-02-08T22:04:14.117Z,1.83
2023-02-08T22:14:35.830Z,1.79
2023-02-08T22:24:57.255Z,1.70
2023-02-08T22:35:18.787Z,1.67
2023-02-08T22:45:42.295Z,1.61
2023-02-08T22:56:04.160Z,1.59
2023-02-08T23:06:25.519Z,1.50
2023-02-08T23:16:46.960Z,1.49
2023-02-08T23:27:08.322Z,1.44
2023-02-08T23:37:29.694Z,1.47
2023-02-08T23:47:51.161Z,1.38
2023-02-08T23:58:12.545Z,1.31
